KCTY/CTY METAR and TAF weather

Enter ICAO airport designator
Station Type Date Time Source
KCTY METAR 2022/11/26 09:35 UTC NOAA

KCTY 260935Z AUTO 00000KT 1/2SM FG OVC002 21/21 A3004 RMK AO2 T02120212


Station Type Date Time Source
KCTY Decoded METAR 2022/11/26 09:35 UTC NOAA

CROSS CITY AIRPORT, FL, United States (KCTY) 29-38N 083-06W 12M
Nov 26, 2022 - 04:35 AM EST / 2022.11.26 0935 UTC
Wind: Calm:0
Visibility: 1/2 mile(s):0
Sky conditions: overcast
Weather: fog
Temperature: 70.2 F (21.2 C)
Dew Point: 70.2 F (21.2 C)
Relative Humidity: 100%
Pressure (altimeter): 30.04 in. Hg (1017 hPa)
ob: KCTY 260935Z AUTO 00000KT 1/2SM FG OVC002 21/21 A3004 RMK AO2 T02120212
cycle: 9

Station Type Date Time Source
KCTY TAF UTC NOAA

Error!

Example: see airport list